createdAt,value
2022-08-09T00:00:12.087Z,54.22
2022-08-09T00:01:10.685Z,54.32
2022-08-09T00:02:10.709Z,54.32
2022-08-09T00:04:00.005Z,54.22
2022-08-09T00:04:24.900Z,54.62
2022-08-09T00:06:17.559Z,54.52
2022-08-09T00:06:19.427Z,54.42
2022-08-09T00:07:11.024Z,54.82
2022-08-09T00:08:10.139Z,54.72
2022-08-09T00:09:09.571Z,54.72
2022-08-09T00:10:09.559Z,54.72
2022-08-09T00:11:24.427Z,55.05
2022-08-09T00:12:22.364Z,55.05
2022-08-09T00:13:17.247Z,54.72
2022-08-09T00:14:10.545Z,55.05
2022-08-09T00:15:13.903Z,54.72
2022-08-09T00:16:09.505Z,54.52
2022-08-09T00:17:09.485Z,54.82
2022-08-09T00:18:12.164Z,54.82
2022-08-09T00:19:10.350Z,54.72
2022-08-09T00:20:12.101Z,54.82
2022-08-09T00:21:09.464Z,54.72
2022-08-09T00:22:09.432Z,54.52
2022-08-09T00:23:58.162Z,54.12
2022-08-09T00:24:10.453Z,54.39
2022-08-09T00:25:10.234Z,54.19
2022-08-09T00:26:11.043Z,54.49
2022-08-09T00:27:09.377Z,54.39
2022-08-09T00:28:09.365Z,53.79
2022-08-09T00:29:12.513Z,53.99
2022-08-09T00:30:25.137Z,53.69
2022-08-09T00:31:56.762Z,53.89
2022-08-09T00:32:12.770Z,53.89
2022-08-09T00:33:09.315Z,54.10
2022-08-09T00:34:09.297Z,53.79
2022-08-09T00:35:09.288Z,53.59
2022-08-09T00:36:09.306Z,53.67
2022-08-09T00:37:09.267Z,53.57
2022-08-09T00:38:09.256Z,53.57
2022-08-09T00:39:16.740Z,53.37
2022-08-09T00:40:17.041Z,53.17
2022-08-09T00:41:10.236Z,53.49
2022-08-09T00:44:15.310Z,53.69
2022-08-09T00:44:16.634Z,54.29
2022-08-09T00:44:25.064Z,53.79
2022-08-09T00:45:15.624Z,53.79
2022-08-09T00:46:10.182Z,53.89
2022-08-09T00:47:09.164Z,53.79
2022-08-09T00:48:10.146Z,53.69
2022-08-09T00:49:10.139Z,54.10
2022-08-09T00:50:14.793Z,54.29
2022-08-09T00:51:11.750Z,53.89
2022-08-09T00:52:15.980Z,53.89
2022-08-09T00:53:11.754Z,53.69
2022-08-09T00:54:09.083Z,53.69
2022-08-09T00:55:09.075Z,53.79
2022-08-09T00:56:10.180Z,53.69
2022-08-09T00:57:11.035Z,54.39
2022-08-09T00:58:09.215Z,54.39
2022-08-09T00:59:10.030Z,54.60
2022-08-09T01:00:21.391Z,54.49
2022-08-09T01:01:10.181Z,54.29
2022-08-09T01:02:09.998Z,54.29
2022-08-09T01:03:08.990Z,54.49
2022-08-09T01:04:08.976Z,54.49
2022-08-09T01:05:14.132Z,54.39
2022-08-09T01:06:17.708Z,54.60
2022-08-09T01:07:13.924Z,54.39
2022-08-09T01:08:08.929Z,54.47
2022-08-09T01:09:09.512Z,53.69
2022-08-09T01:10:08.908Z,53.99
2022-08-09T01:11:08.928Z,53.87
2022-08-09T01:12:08.887Z,53.79
2022-08-09T01:13:08.878Z,53.87
2022-08-09T01:14:10.024Z,53.69
2022-08-09T01:15:10.100Z,54.60
2022-08-09T01:16:09.843Z,54.29
2022-08-09T01:17:09.125Z,54.29
2022-08-09T01:18:08.824Z,54.39
2022-08-09T01:19:17.161Z,54.29
2022-08-09T01:20:09.818Z,54.29
2022-08-09T01:21:09.927Z,54.39
2022-08-09T01:22:12.277Z,54.19
2022-08-09T01:23:12.403Z,54.19
2022-08-09T01:24:09.757Z,54.39
2022-08-09T01:25:08.762Z,54.39
2022-08-09T01:26:08.740Z,54.29
2022-08-09T01:27:08.728Z,54.39
2022-08-09T01:28:08.719Z,54.49
2022-08-09T01:29:08.708Z,54.49
2022-08-09T01:30:08.706Z,54.19
2022-08-09T01:31:09.681Z,54.29
2022-08-09T01:32:39.058Z,54.39
2022-08-09T01:33:10.122Z,54.17
2022-08-09T01:34:08.925Z,54.27
2022-08-09T01:35:18.203Z,54.37
2022-08-09T01:36:09.627Z,54.49
2022-08-09T01:37:08.628Z,54.57
2022-08-09T01:38:10.745Z,54.37
2022-08-09T01:39:09.708Z,54.60
2022-08-09T01:40:08.598Z,53.79
2022-08-09T01:41:08.581Z,54.27
2022-08-09T01:42:11.129Z,54.39
2022-08-09T01:43:08.555Z,54.27
2022-08-09T01:44:08.541Z,53.99
2022-08-09T01:45:08.544Z,53.87
2022-08-09T01:46:08.521Z,53.67
2022-08-09T01:47:11.650Z,54.57
2022-08-09T01:48:08.498Z,54.39
2022-08-09T01:49:10.285Z,54.90
2022-08-09T01:50:08.493Z,55.09
2022-08-09T01:51:08.468Z,54.90
2022-08-09T01:52:08.454Z,54.69
2022-08-09T01:53:19.995Z,54.90
2022-08-09T01:54:09.433Z,54.69
2022-08-09T01:55:08.437Z,55.19
2022-08-09T01:56:08.413Z,54.79
2022-08-09T01:57:08.405Z,54.90
2022-08-09T01:58:08.392Z,54.79
2022-08-09T01:59:08.385Z,54.99
2022-08-09T02:00:09.031Z,54.69
2022-08-09T02:01:09.389Z,54.69
2022-08-09T02:02:09.405Z,54.99
2022-08-09T02:03:11.311Z,54.49
2022-08-09T02:04:09.322Z,54.99
2022-08-09T02:05:15.102Z,54.90
2022-08-09T02:06:09.303Z,54.92
2022-08-09T02:07:08.293Z,55.09
2022-08-09T02:08:35.353Z,55.09
2022-08-09T02:09:09.275Z,55.19
2022-08-09T02:10:08.272Z,55.19
2022-08-09T02:11:16.646Z,55.62
2022-08-09T02:12:09.244Z,55.62
2022-08-09T02:13:08.229Z,55.52
2022-08-09T02:14:09.433Z,55.62
2022-08-09T02:15:08.224Z,55.42
2022-08-09T02:16:08.196Z,55.52
2022-08-09T02:17:15.434Z,55.42
2022-08-09T02:18:10.758Z,55.52
2022-08-09T02:19:08.169Z,55.42
2022-08-09T02:20:08.165Z,55.12
2022-08-09T02:21:08.148Z,55.09
2022-08-09T02:22:08.134Z,55.52
2022-08-09T02:23:08.120Z,55.49
2022-08-09T02:24:08.113Z,55.59
2022-08-09T02:25:08.154Z,55.22
2022-08-09T02:26:08.090Z,55.40
2022-08-09T02:27:09.082Z,55.62
2022-08-09T02:28:09.693Z,55.40
2022-08-09T02:29:08.057Z,55.40
2022-08-09T02:30:08.044Z,55.69
2022-08-09T02:31:08.083Z,55.29
2022-08-09T02:32:08.022Z,55.52
2022-08-09T02:33:14.282Z,55.49
2022-08-09T02:34:13.114Z,55.59
2022-08-09T02:35:17.673Z,55.40
2022-08-09T02:36:10.581Z,55.72
2022-08-09T02:37:07.970Z,55.52
2022-08-09T02:38:07.962Z,55.69
2022-08-09T02:39:14.354Z,55.19
2022-08-09T02:40:09.447Z,55.40
2022-08-09T02:41:07.928Z,55.69
2022-08-09T02:42:07.914Z,55.69
2022-08-09T02:43:07.908Z,55.79
2022-08-09T02:44:22.049Z,55.69
2022-08-09T02:45:08.901Z,55.59
2022-08-09T02:46:07.873Z,55.49
2022-08-09T02:47:07.863Z,55.19
2022-08-09T02:48:19.390Z,55.49
2022-08-09T02:49:08.841Z,55.49
2022-08-09T02:50:07.837Z,55.40
2022-08-09T02:51:07.820Z,55.59
2022-08-09T02:52:07.926Z,55.69
2022-08-09T02:53:07.800Z,55.59
2022-08-09T02:54:07.788Z,55.40
2022-08-09T02:55:20.072Z,56.02
2022-08-09T02:56:08.766Z,55.62
2022-08-09T02:57:13.924Z,55.52
2022-08-09T02:58:36.205Z,56.02
2022-08-09T02:59:08.736Z,55.82
2022-08-09T03:00:21.057Z,55.92
2022-08-09T03:01:11.220Z,56.12
2022-08-09T03:02:11.907Z,56.22
2022-08-09T03:03:07.715Z,55.92
2022-08-09T03:04:17.539Z,56.02
2022-08-09T03:05:08.679Z,56.02
2022-08-09T03:06:08.661Z,56.12
2022-08-09T03:07:14.132Z,56.02
2022-08-09T03:08:08.633Z,55.62
2022-08-09T03:09:07.628Z,56.22
2022-08-09T03:10:07.625Z,56.02
2022-08-09T03:11:07.604Z,56.02
2022-08-09T03:12:11.250Z,55.72
2022-08-09T03:13:09.961Z,56.22
2022-08-09T03:14:07.570Z,56.45
2022-08-09T03:15:07.571Z,56.62
2022-08-09T03:16:07.553Z,56.72
2022-08-09T03:17:07.538Z,56.42
2022-08-09T03:18:09.717Z,56.52
2022-08-09T03:19:14.601Z,56.24
2022-08-09T03:20:11.429Z,56.52
2022-08-09T03:21:07.504Z,56.35
2022-08-09T03:22:12.210Z,56.65
2022-08-09T03:23:24.210Z,56.85
2022-08-09T03:24:10.122Z,56.45
2022-08-09T03:25:26.159Z,56.92
2022-08-09T03:26:08.446Z,56.74
2022-08-09T03:27:07.458Z,56.65
2022-08-09T03:28:11.418Z,56.95
2022-08-09T03:29:09.600Z,56.72
2022-08-09T03:30:08.412Z,56.62
2022-08-09T03:31:10.346Z,56.82
2022-08-09T03:32:08.509Z,56.42
2022-08-09T03:33:13.145Z,56.62
2022-08-09T03:34:08.358Z,56.82
2022-08-09T03:35:15.092Z,56.22
2022-08-09T03:36:12.878Z,56.02
2022-08-09T03:37:54.713Z,56.02
2022-08-09T03:38:08.315Z,55.92
2022-08-09T03:39:08.353Z,55.72
2022-08-09T03:40:07.401Z,55.62
2022-08-09T03:41:07.286Z,55.72
2022-08-09T03:42:07.284Z,56.12
2022-08-09T03:43:07.262Z,55.42
2022-08-09T03:44:08.950Z,55.82
2022-08-09T03:45:07.249Z,56.22
2022-08-09T03:46:20.287Z,56.42
2022-08-09T03:47:08.227Z,56.62
2022-08-09T03:48:07.210Z,57.15
2022-08-09T03:49:08.767Z,57.02
2022-08-09T03:50:07.262Z,56.62
2022-08-09T03:51:07.180Z,56.92
2022-08-09T03:52:08.162Z,56.85
2022-08-09T03:53:07.150Z,57.24
2022-08-09T03:54:10.646Z,56.82
2022-08-09T03:55:07.790Z,57.02
2022-08-09T03:56:07.121Z,57.15
2022-08-09T03:57:18.283Z,56.74
2022-08-09T03:58:16.173Z,56.95
2022-08-09T03:59:08.085Z,56.95
2022-08-09T04:00:08.094Z,57.05
2022-08-09T04:01:07.152Z,57.24
2022-08-09T04:02:07.056Z,56.95
2022-08-09T04:03:07.046Z,57.35
2022-08-09T04:04:10.120Z,56.95
2022-08-09T04:05:26.934Z,57.05
2022-08-09T04:06:08.023Z,57.24
2022-08-09T04:07:07.011Z,56.95
2022-08-09T04:08:06.991Z,57.15
2022-08-09T04:09:15.130Z,57.05
2022-08-09T04:10:07.992Z,57.05
2022-08-09T04:11:06.958Z,57.05
2022-08-09T04:12:06.949Z,56.92
2022-08-09T04:13:07.949Z,57.35
2022-08-09T04:14:53.033Z,57.02
2022-08-09T04:15:11.429Z,56.85
2022-08-09T04:16:17.682Z,57.02
2022-08-09T04:17:07.894Z,57.05
2022-08-09T04:18:06.884Z,57.05
2022-08-09T04:19:10.964Z,57.02
2022-08-09T04:20:07.875Z,56.15
2022-08-09T04:21:06.852Z,56.55
2022-08-09T04:22:06.844Z,56.95
2022-08-09T04:23:10.060Z,56.85
2022-08-09T04:24:07.830Z,57.15
2022-08-09T04:25:06.823Z,57.45
2022-08-09T04:26:06.797Z,57.24
2022-08-09T04:27:06.785Z,57.42
2022-08-09T04:28:06.777Z,57.24
2022-08-09T04:29:13.462Z,56.92
2022-08-09T04:30:07.769Z,57.35
2022-08-09T04:31:08.303Z,56.92
2022-08-09T04:32:06.738Z,56.92
2022-08-09T04:33:07.782Z,57.02
2022-08-09T04:34:09.287Z,57.02
2022-08-09T04:35:08.673Z,57.05
2022-08-09T04:36:06.689Z,57.35
2022-08-09T04:37:06.680Z,57.52
2022-08-09T04:38:06.671Z,57.52
2022-08-09T04:39:06.706Z,57.52
2022-08-09T04:40:06.665Z,57.55
2022-08-09T04:41:06.634Z,57.55
2022-08-09T04:42:09.308Z,57.52
2022-08-09T04:43:06.620Z,56.85
2022-08-09T04:44:09.752Z,57.02
2022-08-09T04:45:06.605Z,57.24
2022-08-09T04:46:06.589Z,57.52
2022-08-09T04:47:07.577Z,57.12
2022-08-09T04:48:10.342Z,57.52
2022-08-09T04:49:06.547Z,57.32
2022-08-09T04:50:06.553Z,57.55
2022-08-09T04:51:06.542Z,57.65
2022-08-09T04:52:07.330Z,57.55
2022-08-09T04:53:06.509Z,57.42
2022-08-09T04:54:07.499Z,57.52
2022-08-09T04:55:11.871Z,57.22
2022-08-09T04:56:07.476Z,57.62
2022-08-09T04:57:09.269Z,57.62
2022-08-09T04:58:09.593Z,57.42
2022-08-09T04:59:15.339Z,57.75
2022-08-09T05:00:07.448Z,57.42
2022-08-09T05:01:16.062Z,57.72
2022-08-09T05:02:07.412Z,57.42
2022-08-09T05:03:12.736Z,57.52
2022-08-09T05:04:07.468Z,57.45
2022-08-09T05:05:10.104Z,57.42
2022-08-09T05:06:06.919Z,57.52
2022-08-09T05:07:06.355Z,57.42
2022-08-09T05:08:07.372Z,57.62
2022-08-09T05:09:06.332Z,57.62
2022-08-09T05:10:06.343Z,57.52
2022-08-09T05:11:06.766Z,57.24
2022-08-09T05:12:06.312Z,57.62
2022-08-09T05:13:06.290Z,57.52
2022-08-09T05:14:06.725Z,57.82
2022-08-09T05:15:11.613Z,57.95
2022-08-09T05:16:07.264Z,57.52
2022-08-09T05:17:06.249Z,57.62
2022-08-09T05:18:50.871Z,57.35
2022-08-09T05:19:07.676Z,57.45
2022-08-09T05:20:06.244Z,57.72
2022-08-09T05:21:13.405Z,57.62
2022-08-09T05:22:07.195Z,57.62
2022-08-09T05:23:56.722Z,57.72
2022-08-09T05:24:07.534Z,57.62
2022-08-09T05:25:06.198Z,57.59
2022-08-09T05:26:06.153Z,57.42
2022-08-09T05:27:06.145Z,57.39
2022-08-09T05:28:06.141Z,57.39
2022-08-09T05:29:06.120Z,57.19
2022-08-09T05:30:06.121Z,56.99
2022-08-09T05:31:09.424Z,57.09
2022-08-09T05:32:06.085Z,56.89
2022-08-09T05:33:09.499Z,57.50
2022-08-09T05:34:06.065Z,57.09
2022-08-09T05:35:06.076Z,57.39
2022-08-09T05:36:07.158Z,57.39
2022-08-09T05:37:11.221Z,57.29
2022-08-09T05:38:07.021Z,57.50
2022-08-09T05:39:06.088Z,57.19
2022-08-09T05:40:06.103Z,57.50
2022-08-09T05:41:06.014Z,57.26
2022-08-09T05:42:06.977Z,56.96
2022-08-09T05:43:05.982Z,57.07
2022-08-09T05:44:05.957Z,56.87
2022-08-09T05:45:05.958Z,56.57
2022-08-09T05:46:05.935Z,55.97
2022-08-09T05:47:06.006Z,56.77
2022-08-09T05:48:05.915Z,56.27
2022-08-09T05:49:07.469Z,56.67
2022-08-09T05:50:25.255Z,56.96
2022-08-09T05:51:29.935Z,56.16
2022-08-09T05:52:07.884Z,56.67
2022-08-09T05:53:05.862Z,56.57
2022-08-09T05:54:06.849Z,56.57
2022-08-09T05:55:07.469Z,56.44
2022-08-09T05:56:05.833Z,56.54
2022-08-09T05:57:06.297Z,56.44
2022-08-09T05:58:07.146Z,56.14
2022-08-09T05:59:05.824Z,56.14
2022-08-09T06:00:05.804Z,55.64
2022-08-09T06:01:06.662Z,55.54
2022-08-09T06:02:05.768Z,55.84
2022-08-09T06:03:10.609Z,56.04
2022-08-09T06:04:06.810Z,56.14
2022-08-09T06:05:05.746Z,56.04
2022-08-09T06:06:06.562Z,55.54
2022-08-09T06:07:05.713Z,55.64
2022-08-09T06:08:08.035Z,55.64
2022-08-09T06:09:22.985Z,55.64
2022-08-09T06:10:06.695Z,55.74
2022-08-09T06:11:16.340Z,55.64
2022-08-09T06:12:06.662Z,55.84
2022-08-09T06:13:12.206Z,55.84
2022-08-09T06:14:06.641Z,55.34
2022-08-09T06:15:09.841Z,55.54
2022-08-09T06:16:05.622Z,55.94
2022-08-09T06:17:09.316Z,55.64
2022-08-09T06:18:05.613Z,55.34
2022-08-09T06:19:05.586Z,55.34
2022-08-09T06:20:05.598Z,55.84
2022-08-09T06:21:05.720Z,55.74
2022-08-09T06:22:05.558Z,55.84
2022-08-09T06:23:06.548Z,55.34
2022-08-09T06:24:06.536Z,55.64
2022-08-09T06:25:08.581Z,55.54
2022-08-09T06:26:06.522Z,55.32
2022-08-09T06:27:05.599Z,55.04
2022-08-09T06:28:05.501Z,55.11
2022-08-09T06:29:05.687Z,55.32
2022-08-09T06:30:09.454Z,55.44
2022-08-09T06:31:05.463Z,55.71
2022-08-09T06:32:36.229Z,55.71
2022-08-09T06:33:30.185Z,54.91
2022-08-09T06:34:06.437Z,55.21
2022-08-09T06:35:06.342Z,55.51
2022-08-09T06:36:07.350Z,55.21
2022-08-09T06:37:05.401Z,55.11
2022-08-09T06:38:06.776Z,54.91
2022-08-09T06:39:09.245Z,55.02
2022-08-09T06:40:21.853Z,55.02
2022-08-09T06:41:18.968Z,54.71
2022-08-09T06:42:08.581Z,54.82
2022-08-09T06:43:07.724Z,54.71
2022-08-09T06:44:06.327Z,54.52
2022-08-09T06:46:05.257Z,54.91
2022-08-09T06:46:10.897Z,54.32
2022-08-09T06:47:06.297Z,54.02
2022-08-09T06:48:05.299Z,54.39
2022-08-09T06:49:05.284Z,54.49
2022-08-09T06:50:13.636Z,53.59
2022-08-09T06:51:06.257Z,53.77
2022-08-09T06:52:05.251Z,53.19
2022-08-09T06:53:05.231Z,53.77
2022-08-09T06:54:05.889Z,53.77
2022-08-09T06:55:12.583Z,52.84
2022-08-09T06:56:06.203Z,52.64
2022-08-09T06:57:05.191Z,52.74
2022-08-09T06:58:05.181Z,52.02
2022-08-09T07:00:49.733Z,52.19
2022-08-09T07:00:52.509Z,52.59
2022-08-09T07:01:06.144Z,51.57
2022-08-09T07:02:05.332Z,51.67
2022-08-09T07:03:06.121Z,50.65
2022-08-09T07:04:05.115Z,51.05
2022-08-09T07:05:05.113Z,51.15
2022-08-09T07:06:05.533Z,51.54
2022-08-09T07:07:05.265Z,50.85
2022-08-09T07:08:05.072Z,50.52
2022-08-09T07:09:05.058Z,49.29
2022-08-09T07:10:14.209Z,49.26
2022-08-09T07:11:06.628Z,48.27
2022-08-09T07:12:05.038Z,48.14
2022-08-09T07:13:05.385Z,47.63
2022-08-09T07:14:06.438Z,47.83
2022-08-09T07:16:36.200Z,46.61
2022-08-09T07:16:42.869Z,46.51
2022-08-09T07:17:08.190Z,47.23
2022-08-09T07:18:04.961Z,47.55
2022-08-09T07:19:05.982Z,47.45
2022-08-09T07:20:04.948Z,47.65
2022-08-09T07:21:04.935Z,47.65
2022-08-09T07:22:04.919Z,47.45
2022-08-09T07:23:18.054Z,47.16
2022-08-09T07:24:05.907Z,47.45
2022-08-09T07:25:05.435Z,47.17
2022-08-09T07:26:04.911Z,47.38
2022-08-09T07:27:21.081Z,47.65
2022-08-09T07:28:05.860Z,47.57
2022-08-09T07:29:08.503Z,47.55
2022-08-09T07:30:05.833Z,48.37
2022-08-09T07:31:04.994Z,47.97
2022-08-09T07:32:04.814Z,47.17
2022-08-09T07:33:12.349Z,47.87
2022-08-09T07:34:05.800Z,47.47
2022-08-09T07:35:10.741Z,48.27
2022-08-09T07:36:05.794Z,46.83
2022-08-09T07:37:04.774Z,46.61
2022-08-09T07:38:04.748Z,44.78
2022-08-09T07:39:04.788Z,44.86
2022-08-09T07:40:05.792Z,44.54
2022-08-09T07:41:12.843Z,44.23
2022-08-09T07:42:06.289Z,43.02
2022-08-09T07:43:06.981Z,43.29
2022-08-09T07:44:05.697Z,42.26
2022-08-09T07:45:06.468Z,42.54
2022-08-09T07:46:05.663Z,40.64
2022-08-09T07:47:04.657Z,41.02
2022-08-09T07:48:05.129Z,40.51
2022-08-09T07:49:04.636Z,40.41
2022-08-09T07:50:08.732Z,40.09
2022-08-09T07:52:03.491Z,39.39
2022-08-09T07:52:17.727Z,39.26
2022-08-09T07:53:05.606Z,38.58
2022-08-09T07:54:08.455Z,38.18
2022-08-09T07:55:09.723Z,38.26
2022-08-09T07:56:06.517Z,37.77
2022-08-09T07:57:04.550Z,37.48
2022-08-09T07:58:05.549Z,37.28
2022-08-09T07:59:14.201Z,37.67
2022-08-09T08:00:08.750Z,37.76
2022-08-09T08:01:06.699Z,36.67
2022-08-09T08:02:05.613Z,36.57
2022-08-09T08:03:08.099Z,37.46
2022-08-09T08:04:04.479Z,36.88
2022-08-09T08:05:17.762Z,37.36
2022-08-09T08:06:05.464Z,36.85
2022-08-09T08:07:09.326Z,36.63
2022-08-09T08:09:01.778Z,36.22
2022-08-09T08:09:07.734Z,35.82
2022-08-09T08:10:08.776Z,36.60
2022-08-09T08:12:08.890Z,35.83
2022-08-09T08:12:11.273Z,35.93
2022-08-09T08:13:05.398Z,35.64
2022-08-09T08:14:04.820Z,36.44
2022-08-09T08:15:04.376Z,36.75
2022-08-09T08:16:04.360Z,36.77
2022-08-09T08:17:08.715Z,37.36
2022-08-09T08:18:04.354Z,37.15
2022-08-09T08:19:04.542Z,36.13
2022-08-09T08:20:04.319Z,35.72
2022-08-09T08:21:05.310Z,35.64
2022-08-09T08:22:04.302Z,36.63
2022-08-09T08:23:17.134Z,35.44
2022-08-09T08:24:12.193Z,35.66
2022-08-09T08:25:05.270Z,35.87
2022-08-09T08:26:08.054Z,35.69
2022-08-09T08:27:05.282Z,36.87
2022-08-09T08:28:05.247Z,36.77
2022-08-09T08:29:04.228Z,36.97
2022-08-09T08:30:04.499Z,36.97
2022-08-09T08:31:14.395Z,36.74
2022-08-09T08:32:06.128Z,35.16
2022-08-09T08:33:04.476Z,35.03
2022-08-09T08:34:04.215Z,35.02
2022-08-09T08:35:04.172Z,34.62
2022-08-09T08:36:04.327Z,34.52
2022-08-09T08:37:04.162Z,34.51
2022-08-09T08:38:09.385Z,34.80
2022-08-09T08:39:05.199Z,34.00
2022-08-09T08:40:04.186Z,33.90
2022-08-09T08:41:06.169Z,33.89
2022-08-09T08:42:04.099Z,33.77
2022-08-09T08:43:13.457Z,33.89
2022-08-09T08:44:05.095Z,33.28
2022-08-09T08:45:11.724Z,32.39
2022-08-09T08:46:31.689Z,32.58
2022-08-09T08:47:12.493Z,32.87
2022-08-09T08:48:05.268Z,32.60
2022-08-09T08:49:04.044Z,32.79
2022-08-09T08:50:04.023Z,32.58
2022-08-09T08:51:04.012Z,32.76
2022-08-09T08:52:10.379Z,32.66
2022-08-09T08:53:05.387Z,32.97
2022-08-09T08:54:04.795Z,33.15
2022-08-09T08:55:05.409Z,31.98
2022-08-09T08:56:03.967Z,32.17
2022-08-09T08:57:03.973Z,32.17
2022-08-09T08:58:04.957Z,32.27
2022-08-09T08:59:07.693Z,32.01
2022-08-09T09:00:08.261Z,32.43
2022-08-09T09:01:08.847Z,33.44
2022-08-09T09:02:03.935Z,33.64
2022-08-09T09:03:12.098Z,33.94
2022-08-09T09:04:04.885Z,33.14
2022-08-09T09:05:10.163Z,33.72
2022-08-09T09:06:05.484Z,32.61
2022-08-09T09:07:03.858Z,32.79
2022-08-09T09:08:03.864Z,32.61
2022-08-09T09:09:06.761Z,33.29
2022-08-09T09:10:08.872Z,32.51
2022-08-09T09:11:03.998Z,32.79
2022-08-09T09:12:07.719Z,31.91
2022-08-09T09:13:09.496Z,32.27
2022-08-09T09:14:04.797Z,32.07
2022-08-09T09:15:03.788Z,32.17
2022-08-09T09:16:03.790Z,31.78
2022-08-09T09:17:03.764Z,31.88
2022-08-09T09:18:03.768Z,31.68
2022-08-09T09:19:37.234Z,32.37
2022-08-09T09:20:04.733Z,31.38
2022-08-09T09:21:03.728Z,31.56
2022-08-09T09:22:05.290Z,31.33
2022-08-09T09:23:03.722Z,31.12
2022-08-09T09:24:04.495Z,30.83
2022-08-09T09:26:02.486Z,30.84
2022-08-09T09:26:12.377Z,30.94
2022-08-09T09:27:04.676Z,30.84
2022-08-09T09:28:07.824Z,31.05
2022-08-09T09:29:11.198Z,31.28
2022-08-09T09:30:13.966Z,30.91
2022-08-09T09:31:04.625Z,30.82
2022-08-09T09:32:15.418Z,31.41
2022-08-09T09:33:16.984Z,32.17
2022-08-09T09:34:04.594Z,31.67
2022-08-09T09:35:03.684Z,30.68
2022-08-09T09:36:20.040Z,31.16
2022-08-09T09:37:04.580Z,30.38
2022-08-09T09:38:03.559Z,30.68
2022-08-09T09:39:03.600Z,31.07
2022-08-09T09:40:03.621Z,30.88
2022-08-09T09:41:03.532Z,30.98
2022-08-09T09:42:06.590Z,31.16
2022-08-09T09:43:04.522Z,30.19
2022-08-09T09:44:10.912Z,29.99
2022-08-09T09:45:04.501Z,29.30
2022-08-09T09:47:04.510Z,29.67
2022-08-09T09:48:03.463Z,29.67
2022-08-09T09:49:03.456Z,29.28
2022-08-09T09:50:14.519Z,30.16
2022-08-09T09:51:04.463Z,29.77
2022-08-09T09:52:04.437Z,29.77
2022-08-09T09:53:03.655Z,30.57
2022-08-09T09:54:10.611Z,29.18
2022-08-09T09:55:16.608Z,29.57
2022-08-09T09:56:05.473Z,29.17
2022-08-09T09:58:04.420Z,29.57
2022-08-09T09:58:17.346Z,30.18
2022-08-09T09:59:04.359Z,29.88
2022-08-09T10:00:03.353Z,29.67
2022-08-09T10:01:03.343Z,29.77
2022-08-09T10:02:03.336Z,29.67
2022-08-09T10:03:11.494Z,29.50
2022-08-09T10:04:09.695Z,29.60
2022-08-09T10:05:06.692Z,29.31
2022-08-09T10:06:04.897Z,30.09
2022-08-09T10:07:10.100Z,30.38
2022-08-09T10:08:25.980Z,30.40
2022-08-09T10:09:11.857Z,30.00
2022-08-09T10:10:04.255Z,29.80
2022-08-09T10:11:14.249Z,29.90
2022-08-09T10:12:14.376Z,29.90
2022-08-09T10:13:04.229Z,29.70
2022-08-09T10:14:03.215Z,29.59
2022-08-09T10:15:03.207Z,29.49
2022-08-09T10:16:55.645Z,29.41
2022-08-09T10:17:24.384Z,29.21
2022-08-09T10:18:04.179Z,29.79
2022-08-09T10:19:03.167Z,29.30
2022-08-09T10:20:03.157Z,29.86
2022-08-09T10:21:03.151Z,29.38
2022-08-09T10:22:03.167Z,29.17
2022-08-09T10:23:03.132Z,29.85
2022-08-09T10:24:03.951Z,29.27
2022-08-09T10:25:06.962Z,29.27
2022-08-09T10:26:07.887Z,29.27
2022-08-09T10:27:05.414Z,29.86
2022-08-09T10:28:04.081Z,29.79
2022-08-09T10:29:23.242Z,29.02
2022-08-09T10:30:41.758Z,29.71
2022-08-09T10:33:04.075Z,32.34
2022-08-09T10:34:08.676Z,31.67
2022-08-09T10:35:04.020Z,32.37
2022-08-09T10:36:03.016Z,32.27
2022-08-09T10:37:03.140Z,32.89
2022-08-09T10:38:03.021Z,33.51
2022-08-09T10:39:03.033Z,33.51
2022-08-09T10:40:04.057Z,33.82
2022-08-09T10:41:03.071Z,34.03
2022-08-09T10:42:03.678Z,33.94
2022-08-09T10:43:02.945Z,33.94
2022-08-09T10:44:02.929Z,35.13
2022-08-09T10:45:04.417Z,34.95
2022-08-09T10:46:03.913Z,34.56
2022-08-09T10:47:03.962Z,34.56
2022-08-09T10:48:17.164Z,35.05
2022-08-09T10:49:03.883Z,34.75
2022-08-09T10:50:03.115Z,34.56
2022-08-09T10:51:02.867Z,34.77
2022-08-09T10:52:02.862Z,35.27
2022-08-09T10:53:02.861Z,34.69
2022-08-09T10:54:05.032Z,35.18
2022-08-09T10:55:02.824Z,35.08
2022-08-09T10:56:02.820Z,35.77
2022-08-09T10:57:02.816Z,35.79
2022-08-09T10:58:02.793Z,36.19
2022-08-09T10:59:02.782Z,35.99
2022-08-09T11:00:03.042Z,36.21
2022-08-09T11:03:02.366Z,36.80
2022-08-09T11:03:14.278Z,36.71
2022-08-09T11:03:19.069Z,37.21
2022-08-09T11:04:06.239Z,36.91
2022-08-09T11:05:02.780Z,37.11
2022-08-09T11:06:02.797Z,37.03
2022-08-09T11:07:02.714Z,36.83
2022-08-09T11:08:02.690Z,36.61
2022-08-09T11:09:15.412Z,36.71
2022-08-09T11:10:03.664Z,36.61
2022-08-09T11:11:08.959Z,36.90
2022-08-09T11:12:05.123Z,37.19
2022-08-09T11:13:02.637Z,37.19
2022-08-09T11:14:02.646Z,37.41
2022-08-09T11:15:02.620Z,36.70
2022-08-09T11:16:04.980Z,36.70
2022-08-09T11:17:02.692Z,36.70
2022-08-09T11:18:03.681Z,36.60
2022-08-09T11:19:02.576Z,36.60
2022-08-09T11:20:10.263Z,36.40
2022-08-09T11:21:03.550Z,37.01
2022-08-09T11:22:10.377Z,36.52
2022-08-09T11:23:07.111Z,36.52
2022-08-09T11:24:04.270Z,37.01
2022-08-09T11:25:02.512Z,36.71
2022-08-09T11:26:02.571Z,36.93
2022-08-09T11:27:06.645Z,37.23
2022-08-09T11:28:27.941Z,36.54
2022-08-09T11:29:03.528Z,36.93
2022-08-09T11:30:05.703Z,36.95
2022-08-09T11:31:03.448Z,37.45
2022-08-09T11:32:02.468Z,37.34
2022-08-09T11:33:02.427Z,36.85
2022-08-09T11:34:02.418Z,37.05
2022-08-09T11:35:02.425Z,37.03
2022-08-09T11:36:02.396Z,37.03
2022-08-09T11:37:02.460Z,36.54
2022-08-09T11:38:02.417Z,37.03
2022-08-09T11:39:02.377Z,37.11
2022-08-09T11:40:02.798Z,36.52
2022-08-09T11:41:02.343Z,37.72
2022-08-09T11:42:02.348Z,37.01
2022-08-09T11:43:02.323Z,36.61
2022-08-09T11:44:02.318Z,37.43
2022-08-09T11:45:02.303Z,36.91
2022-08-09T11:46:02.301Z,37.21
2022-08-09T11:47:02.283Z,37.11
2022-08-09T11:48:08.126Z,36.71
2022-08-09T11:49:04.907Z,37.11
2022-08-09T11:50:53.641Z,37.11
2022-08-09T11:52:38.657Z,36.82
2022-08-09T11:53:04.025Z,37.21
2022-08-09T11:53:44.032Z,36.52
2022-08-09T11:54:07.065Z,36.73
2022-08-09T11:55:03.194Z,37.23
2022-08-09T11:56:03.151Z,37.23
2022-08-09T11:57:02.206Z,36.93
2022-08-09T11:58:06.163Z,37.11
2022-08-09T11:59:03.176Z,36.73
2022-08-09T12:00:02.144Z,37.13
2022-08-09T12:01:02.159Z,36.83
2022-08-09T12:02:17.680Z,36.91
2022-08-09T12:03:31.972Z,37.51
2022-08-09T12:04:03.189Z,37.21
2022-08-09T12:05:02.179Z,37.41
2022-08-09T12:06:02.101Z,37.01
2022-08-09T12:07:02.070Z,37.21
2022-08-09T12:08:02.059Z,37.21
2022-08-09T12:09:02.052Z,36.93
2022-08-09T12:10:02.274Z,36.91
2022-08-09T12:11:02.042Z,37.01
2022-08-09T12:12:03.753Z,36.71
2022-08-09T12:13:03.760Z,36.52
2022-08-09T12:14:10.298Z,36.71
2022-08-09T12:15:08.008Z,36.82
2022-08-09T12:16:03.047Z,36.61
2022-08-09T12:17:01.970Z,36.91
2022-08-09T12:18:02.953Z,37.19
2022-08-09T12:19:01.941Z,36.90
2022-08-09T12:20:01.933Z,37.39
2022-08-09T12:21:02.669Z,36.70
2022-08-09T12:22:01.914Z,36.82
2022-08-09T12:23:01.901Z,37.19
2022-08-09T12:24:08.922Z,36.60
2022-08-09T12:25:02.878Z,37.29
2022-08-09T12:26:01.884Z,36.80
2022-08-09T12:29:11.489Z,37.19
2022-08-09T12:29:13.007Z,37.01
2022-08-09T12:29:14.480Z,35.91
2022-08-09T12:30:36.800Z,36.71
2022-08-09T12:31:02.851Z,36.60
2022-08-09T12:32:03.671Z,36.60
2022-08-09T12:33:01.797Z,36.90
2022-08-09T12:34:01.818Z,36.70
2022-08-09T12:35:03.143Z,36.90
2022-08-09T12:36:01.779Z,36.50
2022-08-09T12:37:22.168Z,37.49
2022-08-09T12:38:02.745Z,37.19
2022-08-09T12:39:02.272Z,37.21
2022-08-09T12:40:02.032Z,36.70
2022-08-09T12:41:01.736Z,37.19
2022-08-09T12:42:01.706Z,37.19
2022-08-09T12:43:01.710Z,36.90
2022-08-09T12:44:06.525Z,37.49
2022-08-09T12:45:02.692Z,37.19
2022-08-09T12:46:02.675Z,36.99
2022-08-09T12:47:01.668Z,36.99
2022-08-09T12:48:01.642Z,36.60
2022-08-09T12:49:01.650Z,37.19
2022-08-09T12:50:01.616Z,36.99
2022-08-09T12:51:04.086Z,36.99
2022-08-09T12:52:03.403Z,37.01
2022-08-09T12:53:17.647Z,36.70
2022-08-09T12:54:02.584Z,37.51
2022-08-09T12:56:12.145Z,37.21